Seadozer II — WDB7956 — position and weather

sailwx.info

Track history (hours):
 
Tides and Currents Weather Stations Pressure Air Temp Water Temp Dewpoint Dewpoint Depression Visibility Wind Speed Wind Dir Waves Ship Positions

Seadozer II

Owner: Misener Marine Construction, Inc., Tampa, FL. More information available from US FCC via Universal Licensing System and Coast Guard Vessel Documentation Center.

Last reported at 2018-Feb-15 16:27 UTC. Time now 2018-May-23 23:55 UTC.
Position N 27°53' W 082°32'.
Warning: this ship's position is months out of date.

; draft 1.9 m.

Type: Tug. MMSI: 366950470.

Date/timePositionNaut miles runAvg speedWind from/ knotsBaromVisibWave heightAir tempDewpointWater temp
2018-Feb-15 16:27N 27°53' W 082°32'0 0.1
2018-Feb-15 16:01N 27°53' W 082°32'3 5.8
2018-Feb-15 15:31N 27°51' W 082°34'2 4.7
2018-Feb-15 15:00N 27°48' W 082°33'3 6.0
2018-Feb-15 14:30N 27°48' W 082°30'3 5.9
2018-Feb-15 14:01N 27°49' W 082°26'2 4.1
2018-Feb-15 13:31N 27°48' W 082°24'0 0.0
2018-Feb-15 13:01N 27°48' W 082°24'0 0.0
2018-Feb-14 20:14N 27°48' W 082°24'0 0.1
2018-Feb-14 20:00N 27°48' W 082°24'0 0.0
2018-Feb-14 19:30N 27°48' W 082°24'0 0.0
2018-Feb-14 19:00N 27°48' W 082°24'0 0.0
2018-Feb-14 18:30N 27°48' W 082°24'0 0.0
2018-Feb-14 18:00N 27°48' W 082°24'0 0.0
2018-Feb-14 17:30N 27°48' W 082°24'0 0.0
2018-Feb-14 17:00N 27°48' W 082°24'3 5.2
2018-Feb-14 16:31N 27°50' W 082°26'3 6.5
2018-Feb-14 16:01N 27°54' W 082°26'3 5.3
2018-Feb-14 15:31N 27°56' W 082°27'0 0.4
2018-Feb-14 15:01N 27°56' W 082°27'3 5.4
2018-Feb-14 14:30N 27°53' W 082°26'3 5.2
2018-Feb-14 14:01N 27°51' W 082°26'0 0.7
2018-Feb-14 13:30N 27°51' W 082°26'0 0.0
2018-Feb-14 13:01N 27°51' W 082°26'2 4.0
2018-Feb-14 12:30N 27°49' W 082°25'1 0.1
2018-Feb-13 22:58N 27°48' W 082°24'3 5.4
2018-Feb-13 22:30N 27°50' W 082°26'2 3.3
2018-Feb-13 22:00N 27°52' W 082°27'3 5.1
2018-Feb-13 21:30N 27°54' W 082°26'2 3.9
2018-Feb-13 21:00N 27°56' W 082°27'0 0.0
2018-Feb-13 20:30N 27°56' W 082°27'1 1.5
2018-Feb-13 20:00N 27°56' W 082°27'3 5.8
2018-Feb-13 19:30N 27°53' W 082°26'2 4.3
2018-Feb-13 19:00N 27°51' W 082°26'1 1.3
2018-Feb-13 18:30N 27°51' W 082°27'3 6.8
2018-Feb-13 18:00N 27°54' W 082°25'0 0.4
2018-Feb-13 17:30N 27°54' W 082°25'2 4.1
2018-Feb-13 16:59N 27°53' W 082°26'4 6.7
2018-Feb-13 16:26N 27°49' W 082°27'3 6.6
2018-Feb-13 16:00N 27°47' W 082°30'  
2018-Feb-05 20:07N 27°50' W 082°26'1 2.0
2018-Feb-05 19:30N 27°50' W 082°27'3 5.0
2018-Feb-05 18:58N 27°48' W 082°29'4 5.4
2018-Feb-05 18:19N 27°47' W 082°33'  
Track history (hours):
 
Tides and Currents Weather Stations Pressure Air Temp Water Temp Dewpoint Dewpoint Depression Visibility Wind Speed Wind Dir Waves Ship Positions

Seadozer II

Owner: Misener Marine Construction, Inc., Tampa, FL. More information available from US FCC via Universal Licensing System and Coast Guard Vessel Documentation Center.

Last reported at 2018-Feb-15 16:27 UTC. Time now 2018-May-23 23:55 UTC.
Position N 27°53' W 082°32'.
Warning: this ship's position is months out of date.

; draft 1.9 m.

Type: Tug. MMSI: 366950470.

Date/timePositionNaut miles runAvg speedWind from/ knotsBaromVisibWave heightAir tempDewpointWater temp
2018-Feb-15 16:27N 27°53' W 082°32'0 0.1
2018-Feb-15 16:01N 27°53' W 082°32'3 5.8
2018-Feb-15 15:31N 27°51' W 082°34'2 4.7
2018-Feb-15 15:00N 27°48' W 082°33'3 6.0
2018-Feb-15 14:30N 27°48' W 082°30'3 5.9
2018-Feb-15 14:01N 27°49' W 082°26'2 4.1
2018-Feb-15 13:31N 27°48' W 082°24'0 0.0
2018-Feb-15 13:01N 27°48' W 082°24'0 0.0
2018-Feb-14 20:14N 27°48' W 082°24'0 0.1
2018-Feb-14 20:00N 27°48' W 082°24'0 0.0
2018-Feb-14 19:30N 27°48' W 082°24'0 0.0
2018-Feb-14 19:00N 27°48' W 082°24'0 0.0
2018-Feb-14 18:30N 27°48' W 082°24'0 0.0
2018-Feb-14 18:00N 27°48' W 082°24'0 0.0
2018-Feb-14 17:30N 27°48' W 082°24'0 0.0
2018-Feb-14 17:00N 27°48' W 082°24'3 5.2
2018-Feb-14 16:31N 27°50' W 082°26'3 6.5
2018-Feb-14 16:01N 27°54' W 082°26'3 5.3
2018-Feb-14 15:31N 27°56' W 082°27'0 0.4
2018-Feb-14 15:01N 27°56' W 082°27'3 5.4
2018-Feb-14 14:30N 27°53' W 082°26'3 5.2
2018-Feb-14 14:01N 27°51' W 082°26'0 0.7
2018-Feb-14 13:30N 27°51' W 082°26'0 0.0
2018-Feb-14 13:01N 27°51' W 082°26'2 4.0
2018-Feb-14 12:30N 27°49' W 082°25'1 0.1
2018-Feb-13 22:58N 27°48' W 082°24'3 5.4
2018-Feb-13 22:30N 27°50' W 082°26'2 3.3
2018-Feb-13 22:00N 27°52' W 082°27'3 5.1
2018-Feb-13 21:30N 27°54' W 082°26'2 3.9
2018-Feb-13 21:00N 27°56' W 082°27'0 0.0
2018-Feb-13 20:30N 27°56' W 082°27'1 1.5
2018-Feb-13 20:00N 27°56' W 082°27'3 5.8
2018-Feb-13 19:30N 27°53' W 082°26'2 4.3
2018-Feb-13 19:00N 27°51' W 082°26'1 1.3
2018-Feb-13 18:30N 27°51' W 082°27'3 6.8
2018-Feb-13 18:00N 27°54' W 082°25'0 0.4
2018-Feb-13 17:30N 27°54' W 082°25'2 4.1
2018-Feb-13 16:59N 27°53' W 082°26'4 6.7
2018-Feb-13 16:26N 27°49' W 082°27'3 6.6
2018-Feb-13 16:00N 27°47' W 082°30'  
2018-Feb-05 20:07N 27°50' W 082°26'1 2.0
2018-Feb-05 19:30N 27°50' W 082°27'3 5.0
2018-Feb-05 18:58N 27°48' W 082°29'4 5.4
2018-Feb-05 18:19N 27°47' W 082°33'  

Dump ship's entire track history